sensor_id;sensor_type;location;lat;lon;timestamp;P1;durP1;ratioP1;P2;durP2;ratioP2
71800;SDS011;59647;55.838;37.292;2023-09-18T00:01:00;13.27;;;6.05;;
71800;SDS011;59647;55.838;37.292;2023-09-18T00:03:26;10.80;;;5.47;;
71800;SDS011;59647;55.838;37.292;2023-09-18T00:05:52;13.45;;;6.22;;
71800;SDS011;59647;55.838;37.292;2023-09-18T00:08:19;13.00;;;6.40;;
71800;SDS011;59647;55.838;37.292;2023-09-18T00:10:48;14.23;;;6.10;;
71800;SDS011;59647;55.838;37.292;2023-09-18T00:13:18;10.50;;;5.82;;
71800;SDS011;59647;55.838;37.292;2023-09-18T00:15:44;10.10;;;5.95;;
71800;SDS011;59647;55.838;37.292;2023-09-18T00:18:17;9.95;;;5.40;;
71800;SDS011;59647;55.838;37.292;2023-09-18T00:20:44;9.00;;;4.78;;
71800;SDS011;59647;55.838;37.292;2023-09-18T00:23:12;10.50;;;5.47;;
71800;SDS011;59647;55.838;37.292;2023-09-18T00:25:38;14.32;;;5.53;;
71800;SDS011;59647;55.838;37.292;2023-09-18T00:28:06;11.65;;;6.57;;
71800;SDS011;59647;55.838;37.292;2023-09-18T00:30:32;9.90;;;5.63;;
71800;SDS011;59647;55.838;37.292;2023-09-18T00:33:00;11.25;;;5.95;;
71800;SDS011;59647;55.838;37.292;2023-09-18T00:35:26;9.23;;;4.93;;
71800;SDS011;59647;55.838;37.292;2023-09-18T00:37:52;11.45;;;5.30;;
71800;SDS011;59647;55.838;37.292;2023-09-18T00:40:20;8.85;;;4.45;;
71800;SDS011;59647;55.838;37.292;2023-09-18T00:42:47;10.98;;;5.03;;
71800;SDS011;59647;55.838;37.292;2023-09-18T00:45:13;13.98;;;5.00;;
71800;SDS011;59647;55.838;37.292;2023-09-18T00:47:40;12.30;;;5.45;;
71800;SDS011;59647;55.838;37.292;2023-09-18T00:50:06;9.65;;;5.00;;
71800;SDS011;59647;55.838;37.292;2023-09-18T00:52:37;12.18;;;5.25;;
71800;SDS011;59647;55.838;37.292;2023-09-18T00:55:04;7.65;;;4.78;;
71800;SDS011;59647;55.838;37.292;2023-09-18T00:57:34;7.30;;;4.00;;
71800;SDS011;59647;55.838;37.292;2023-09-18T01:00:01;7.00;;;4.13;;
71800;SDS011;59647;55.838;37.292;2023-09-18T01:02:32;8.25;;;4.00;;
71800;SDS011;59647;55.838;37.292;2023-09-18T01:04:58;16.25;;;4.80;;
71800;SDS011;59647;55.838;37.292;2023-09-18T01:07:24;9.73;;;5.10;;
71800;SDS011;59647;55.838;37.292;2023-09-18T01:09:51;7.80;;;5.00;;
71800;SDS011;59647;55.838;37.292;2023-09-18T01:12:52;9.40;;;4.32;;
71800;SDS011;59647;55.838;37.292;2023-09-18T01:15:14;9.93;;;4.38;;
71800;SDS011;59647;55.838;37.292;2023-09-18T01:17:46;9.55;;;4.55;;
71800;SDS011;59647;55.838;37.292;2023-09-18T01:20:12;7.00;;;4.90;;
71800;SDS011;59647;55.838;37.292;2023-09-18T01:22:38;6.65;;;4.28;;
71800;SDS011;59647;55.838;37.292;2023-09-18T01:25:04;10.20;;;5.20;;
71800;SDS011;59647;55.838;37.292;2023-09-18T01:27:32;10.10;;;4.90;;
71800;SDS011;59647;55.838;37.292;2023-09-18T01:29:58;7.88;;;4.00;;
71800;SDS011;59647;55.838;37.292;2023-09-18T01:32:25;9.38;;;4.65;;
71800;SDS011;59647;55.838;37.292;2023-09-18T01:34:54;8.13;;;4.55;;
71800;SDS011;59647;55.838;37.292;2023-09-18T01:37:23;8.57;;;4.97;;
71800;SDS011;59647;55.838;37.292;2023-09-18T01:39:52;7.50;;;3.75;;
71800;SDS011;59647;55.838;37.292;2023-09-18T01:42:18;14.73;;;5.30;;
71800;SDS011;59647;55.838;37.292;2023-09-18T01:44:46;10.80;;;4.28;;
71800;SDS011;59647;55.838;37.292;2023-09-18T01:47:17;7.65;;;4.25;;
71800;SDS011;59647;55.838;37.292;2023-09-18T01:49:45;7.18;;;4.55;;
71800;SDS011;59647;55.838;37.292;2023-09-18T01:52:12;7.80;;;3.83;;
71800;SDS011;59647;55.838;37.292;2023-09-18T01:54:38;7.22;;;3.97;;
71800;SDS011;59647;55.838;37.292;2023-09-18T01:57:04;10.82;;;4.60;;
71800;SDS011;59647;55.838;37.292;2023-09-18T01:59:30;7.47;;;4.00;;
71800;SDS011;59647;55.838;37.292;2023-09-18T02:01:56;7.82;;;4.20;;
71800;SDS011;59647;55.838;37.292;2023-09-18T02:04:23;8.88;;;4.55;;
71800;SDS011;59647;55.838;37.292;2023-09-18T02:06:49;11.50;;;4.05;;
71800;SDS011;59647;55.838;37.292;2023-09-18T02:09:16;10.77;;;5.10;;
71800;SDS011;59647;55.838;37.292;2023-09-18T02:11:44;5.22;;;3.30;;
71800;SDS011;59647;55.838;37.292;2023-09-18T02:14:13;8.35;;;4.00;;
71800;SDS011;59647;55.838;37.292;2023-09-18T02:16:40;8.77;;;4.30;;
71800;SDS011;59647;55.838;37.292;2023-09-18T02:19:08;8.57;;;4.68;;
71800;SDS011;59647;55.838;37.292;2023-09-18T02:21:36;7.53;;;3.95;;
71800;SDS011;59647;55.838;37.292;2023-09-18T02:24:02;8.77;;;4.50;;
71800;SDS011;59647;55.838;37.292;2023-09-18T02:26:30;6.10;;;3.50;;
71800;SDS011;59647;55.838;37.292;2023-09-18T02:28:58;7.32;;;3.97;;
71800;SDS011;59647;55.838;37.292;2023-09-18T02:31:25;8.20;;;4.72;;
71800;SDS011;59647;55.838;37.292;2023-09-18T02:33:54;8.18;;;4.28;;
71800;SDS011;59647;55.838;37.292;2023-09-18T02:36:20;8.00;;;4.32;;
71800;SDS011;59647;55.838;37.292;2023-09-18T02:38:49;10.00;;;3.83;;
71800;SDS011;59647;55.838;37.292;2023-09-18T02:41:15;7.68;;;4.18;;
71800;SDS011;59647;55.838;37.292;2023-09-18T02:43:41;11.23;;;3.92;;
71800;SDS011;59647;55.838;37.292;2023-09-18T02:46:07;7.00;;;3.65;;
71800;SDS011;59647;55.838;37.292;2023-09-18T02:48:34;7.30;;;3.88;;
71800;SDS011;59647;55.838;37.292;2023-09-18T02:51:01;7.28;;;3.95;;
71800;SDS011;59647;55.838;37.292;2023-09-18T02:53:29;6.10;;;3.70;;
71800;SDS011;59647;55.838;37.292;2023-09-18T02:55:57;8.60;;;4.35;;
71800;SDS011;59647;55.838;37.292;2023-09-18T02:58:24;13.95;;;6.78;;
71800;SDS011;59647;55.838;37.292;2023-09-18T03:00:52;19.80;;;9.48;;
71800;SDS011;59647;55.838;37.292;2023-09-18T03:03:27;10.23;;;5.13;;
71800;SDS011;59647;55.838;37.292;2023-09-18T03:05:53;12.90;;;5.25;;
71800;SDS011;59647;55.838;37.292;2023-09-18T03:08:26;7.60;;;3.80;;
71800;SDS011;59647;55.838;37.292;2023-09-18T03:10:52;7.78;;;4.15;;
71800;SDS011;59647;55.838;37.292;2023-09-18T03:13:18;9.45;;;5.50;;
71800;SDS011;59647;55.838;37.292;2023-09-18T03:15:45;8.35;;;4.28;;
71800;SDS011;59647;55.838;37.292;2023-09-18T03:18:13;7.10;;;4.00;;
71800;SDS011;59647;55.838;37.292;2023-09-18T03:20:41;7.30;;;3.83;;
71800;SDS011;59647;55.838;37.292;2023-09-18T03:23:06;8.57;;;4.70;;
71800;SDS011;59647;55.838;37.292;2023-09-18T03:25:32;10.43;;;4.30;;
71800;SDS011;59647;55.838;37.292;2023-09-18T03:27:59;5.78;;;3.70;;
71800;SDS011;59647;55.838;37.292;2023-09-18T03:30:29;8.00;;;3.85;;
71800;SDS011;59647;55.838;37.292;2023-09-18T03:32:56;7.10;;;3.60;;
71800;SDS011;59647;55.838;37.292;2023-09-18T03:35:23;7.05;;;3.78;;
71800;SDS011;59647;55.838;37.292;2023-09-18T03:37:51;10.52;;;4.57;;
71800;SDS011;59647;55.838;37.292;2023-09-18T03:40:19;8.75;;;3.92;;
71800;SDS011;59647;55.838;37.292;2023-09-18T03:42:46;8.55;;;4.00;;
71800;SDS011;59647;55.838;37.292;2023-09-18T03:45:13;9.18;;;3.88;;
71800;SDS011;59647;55.838;37.292;2023-09-18T03:47:40;8.23;;;3.50;;
71800;SDS011;59647;55.838;37.292;2023-09-18T03:50:11;9.13;;;4.82;;
71800;SDS011;59647;55.838;37.292;2023-09-18T03:52:38;8.23;;;4.15;;
71800;SDS011;59647;55.838;37.292;2023-09-18T03:55:07;11.50;;;4.35;;
71800;SDS011;59647;55.838;37.292;2023-09-18T03:57:34;8.18;;;4.15;;
71800;SDS011;59647;55.838;37.292;2023-09-18T04:00:00;8.20;;;4.82;;
71800;SDS011;59647;55.838;37.292;2023-09-18T04:02:29;8.77;;;4.03;;
71800;SDS011;59647;55.838;37.292;2023-09-18T04:04:55;8.18;;;4.35;;
71800;SDS011;59647;55.838;37.292;2023-09-18T04:07:22;7.20;;;3.95;;
71800;SDS011;59647;55.838;37.292;2023-09-18T04:09:48;6.15;;;3.63;;
71800;SDS011;59647;55.838;37.292;2023-09-18T04:12:14;9.30;;;4.30;;
71800;SDS011;59647;55.838;37.292;2023-09-18T04:14:41;7.35;;;3.30;;
71800;SDS011;59647;55.838;37.292;2023-09-18T04:17:08;7.65;;;3.45;;
71800;SDS011;59647;55.838;37.292;2023-09-18T04:19:34;13.70;;;3.72;;
71800;SDS011;59647;55.838;37.292;2023-09-18T04:22:00;7.80;;;3.70;;
71800;SDS011;59647;55.838;37.292;2023-09-18T04:24:26;7.45;;;4.00;;
71800;SDS011;59647;55.838;37.292;2023-09-18T04:26:52;5.95;;;3.58;;
71800;SDS011;59647;55.838;37.292;2023-09-18T04:29:19;8.68;;;3.95;;
71800;SDS011;59647;55.838;37.292;2023-09-18T04:31:45;8.50;;;3.53;;
71800;SDS011;59647;55.838;37.292;2023-09-18T04:34:13;7.45;;;3.53;;
71800;SDS011;59647;55.838;37.292;2023-09-18T04:36:40;8.43;;;4.00;;
71800;SDS011;59647;55.838;37.292;2023-09-18T04:39:07;9.00;;;4.25;;
71800;SDS011;59647;55.838;37.292;2023-09-18T04:41:35;6.35;;;3.70;;
71800;SDS011;59647;55.838;37.292;2023-09-18T04:44:04;8.52;;;4.25;;
71800;SDS011;59647;55.838;37.292;2023-09-18T04:46:32;8.73;;;4.20;;
71800;SDS011;59647;55.838;37.292;2023-09-18T04:49:01;8.45;;;4.10;;
71800;SDS011;59647;55.838;37.292;2023-09-18T04:51:32;10.77;;;3.97;;
71800;SDS011;59647;55.838;37.292;2023-09-18T04:53:59;7.50;;;4.10;;
71800;SDS011;59647;55.838;37.292;2023-09-18T04:56:26;9.35;;;3.47;;
71800;SDS011;59647;55.838;37.292;2023-09-18T04:58:53;8.50;;;4.20;;
71800;SDS011;59647;55.838;37.292;2023-09-18T05:01:19;7.55;;;3.80;;
71800;SDS011;59647;55.838;37.292;2023-09-18T05:03:47;11.10;;;5.15;;
71800;SDS011;59647;55.838;37.292;2023-09-18T05:06:14;8.82;;;4.05;;
71800;SDS011;59647;55.838;37.292;2023-09-18T05:08:43;6.90;;;3.78;;
71800;SDS011;59647;55.838;37.292;2023-09-18T05:11:10;10.70;;;3.83;;
71800;SDS011;59647;55.838;37.292;2023-09-18T05:13:37;7.40;;;4.00;;
71800;SDS011;59647;55.838;37.292;2023-09-18T05:16:03;8.48;;;4.10;;
71800;SDS011;59647;55.838;37.292;2023-09-18T05:18:29;11.13;;;4.30;;
71800;SDS011;59647;55.838;37.292;2023-09-18T05:20:56;7.93;;;4.47;;
71800;SDS011;59647;55.838;37.292;2023-09-18T05:23:22;9.48;;;4.50;;
71800;SDS011;59647;55.838;37.292;2023-09-18T05:25:48;7.25;;;4.20;;
71800;SDS011;59647;55.838;37.292;2023-09-18T05:28:14;8.60;;;4.18;;
71800;SDS011;59647;55.838;37.292;2023-09-18T05:30:40;9.50;;;4.30;;
71800;SDS011;59647;55.838;37.292;2023-09-18T05:33:07;5.72;;;3.85;;
71800;SDS011;59647;55.838;37.292;2023-09-18T05:35:35;12.20;;;4.22;;
71800;SDS011;59647;55.838;37.292;2023-09-18T05:38:09;12.20;;;4.28;;
71800;SDS011;59647;55.838;37.292;2023-09-18T05:40:40;8.32;;;4.38;;
71800;SDS011;59647;55.838;37.292;2023-09-18T05:43:07;8.60;;;4.57;;
71800;SDS011;59647;55.838;37.292;2023-09-18T05:45:34;8.48;;;3.80;;
71800;SDS011;59647;55.838;37.292;2023-09-18T05:48:00;7.40;;;4.10;;
71800;SDS011;59647;55.838;37.292;2023-09-18T05:50:33;12.18;;;4.10;;
71800;SDS011;59647;55.838;37.292;2023-09-18T05:53:01;10.05;;;3.97;;
71800;SDS011;59647;55.838;37.292;2023-09-18T05:55:30;6.82;;;3.65;;
71800;SDS011;59647;55.838;37.292;2023-09-18T05:57:57;8.18;;;3.83;;
71800;SDS011;59647;55.838;37.292;2023-09-18T06:00:24;10.68;;;4.18;;
71800;SDS011;59647;55.838;37.292;2023-09-18T06:02:51;13.45;;;3.58;;
71800;SDS011;59647;55.838;37.292;2023-09-18T06:05:17;7.90;;;3.58;;
71800;SDS011;59647;55.838;37.292;2023-09-18T06:07:48;8.68;;;3.88;;
71800;SDS011;59647;55.838;37.292;2023-09-18T06:10:15;6.75;;;3.67;;
71800;SDS011;59647;55.838;37.292;2023-09-18T06:12:44;8.45;;;4.20;;
71800;SDS011;59647;55.838;37.292;2023-09-18T06:15:11;7.88;;;3.33;;
71800;SDS011;59647;55.838;37.292;2023-09-18T06:17:39;7.95;;;3.78;;
71800;SDS011;59647;55.838;37.292;2023-09-18T06:20:07;10.10;;;4.10;;
71800;SDS011;59647;55.838;37.292;2023-09-18T06:22:38;7.60;;;4.90;;
71800;SDS011;59647;55.838;37.292;2023-09-18T06:25:06;11.38;;;4.40;;
71800;SDS011;59647;55.838;37.292;2023-09-18T06:27:35;10.98;;;4.00;;
71800;SDS011;59647;55.838;37.292;2023-09-18T06:30:02;6.30;;;4.40;;
71800;SDS011;59647;55.838;37.292;2023-09-18T06:32:30;8.13;;;4.07;;
71800;SDS011;59647;55.838;37.292;2023-09-18T06:34:56;11.07;;;3.90;;
71800;SDS011;59647;55.838;37.292;2023-09-18T06:37:24;9.48;;;3.95;;
71800;SDS011;59647;55.838;37.292;2023-09-18T06:39:50;9.10;;;3.97;;
71800;SDS011;59647;55.838;37.292;2023-09-18T06:42:19;6.50;;;4.18;;
71800;SDS011;59647;55.838;37.292;2023-09-18T06:44:52;6.90;;;3.90;;
71800;SDS011;59647;55.838;37.292;2023-09-18T06:47:18;8.48;;;3.80;;
71800;SDS011;59647;55.838;37.292;2023-09-18T06:49:44;7.90;;;3.75;;
71800;SDS011;59647;55.838;37.292;2023-09-18T06:52:10;9.27;;;4.53;;
71800;SDS011;59647;55.838;37.292;2023-09-18T06:54:38;6.97;;;3.97;;
71800;SDS011;59647;55.838;37.292;2023-09-18T06:57:04;8.02;;;4.07;;
71800;SDS011;59647;55.838;37.292;2023-09-18T06:59:30;7.00;;;4.18;;
71800;SDS011;59647;55.838;37.292;2023-09-18T07:01:56;7.53;;;4.10;;
71800;SDS011;59647;55.838;37.292;2023-09-18T07:04:21;7.40;;;3.75;;
71800;SDS011;59647;55.838;37.292;2023-09-18T07:06:47;7.53;;;3.50;;
71800;SDS011;59647;55.838;37.292;2023-09-18T07:09:14;7.75;;;4.05;;
71800;SDS011;59647;55.838;37.292;2023-09-18T07:11:40;5.03;;;3.05;;
71800;SDS011;59647;55.838;37.292;2023-09-18T07:14:06;9.38;;;4.13;;
71800;SDS011;59647;55.838;37.292;2023-09-18T07:16:33;10.07;;;3.35;;
71800;SDS011;59647;55.838;37.292;2023-09-18T07:19:01;6.38;;;3.83;;
71800;SDS011;59647;55.838;37.292;2023-09-18T07:21:30;7.65;;;3.53;;
71800;SDS011;59647;55.838;37.292;2023-09-18T07:23:56;8.93;;;3.65;;
71800;SDS011;59647;55.838;37.292;2023-09-18T07:26:22;6.30;;;3.65;;
71800;SDS011;59647;55.838;37.292;2023-09-18T07:28:48;7.93;;;4.53;;
71800;SDS011;59647;55.838;37.292;2023-09-18T07:31:13;19.48;;;3.90;;
71800;SDS011;59647;55.838;37.292;2023-09-18T07:33:40;6.90;;;3.67;;
71800;SDS011;59647;55.838;37.292;2023-09-18T07:36:07;7.07;;;3.60;;
71800;SDS011;59647;55.838;37.292;2023-09-18T07:38:35;6.65;;;3.83;;
71800;SDS011;59647;55.838;37.292;2023-09-18T07:41:03;7.70;;;3.33;;
71800;SDS011;59647;55.838;37.292;2023-09-18T07:43:30;7.28;;;3.80;;
71800;SDS011;59647;55.838;37.292;2023-09-18T07:45:56;10.50;;;3.47;;
71800;SDS011;59647;55.838;37.292;2023-09-18T07:48:23;6.63;;;3.88;;
71800;SDS011;59647;55.838;37.292;2023-09-18T07:50:55;6.90;;;3.30;;
71800;SDS011;59647;55.838;37.292;2023-09-18T07:53:28;6.53;;;3.78;;
71800;SDS011;59647;55.838;37.292;2023-09-18T07:56:12;6.72;;;4.00;;
71800;SDS011;59647;55.838;37.292;2023-09-18T07:58:41;7.10;;;3.88;;
71800;SDS011;59647;55.838;37.292;2023-09-18T08:01:08;7.35;;;4.05;;
71800;SDS011;59647;55.838;37.292;2023-09-18T08:03:37;6.43;;;3.58;;
71800;SDS011;59647;55.838;37.292;2023-09-18T08:06:11;8.77;;;3.92;;
71800;SDS011;59647;55.838;37.292;2023-09-18T08:08:38;13.80;;;4.97;;
71800;SDS011;59647;55.838;37.292;2023-09-18T08:11:08;9.18;;;4.53;;
71800;SDS011;59647;55.838;37.292;2023-09-18T08:13:35;7.72;;;4.00;;
71800;SDS011;59647;55.838;37.292;2023-09-18T08:16:03;11.00;;;4.95;;
71800;SDS011;59647;55.838;37.292;2023-09-18T08:18:32;8.15;;;4.28;;
71800;SDS011;59647;55.838;37.292;2023-09-18T08:20:58;9.50;;;5.22;;
71800;SDS011;59647;55.838;37.292;2023-09-18T08:23:26;12.85;;;4.47;;
71800;SDS011;59647;55.838;37.292;2023-09-18T08:25:53;9.48;;;5.18;;
71800;SDS011;59647;55.838;37.292;2023-09-18T08:28:23;7.43;;;4.47;;
71800;SDS011;59647;55.838;37.292;2023-09-18T08:30:49;9.27;;;5.18;;
71800;SDS011;59647;55.838;37.292;2023-09-18T08:33:15;7.05;;;4.25;;
71800;SDS011;59647;55.838;37.292;2023-09-18T08:35:43;9.55;;;4.50;;
71800;SDS011;59647;55.838;37.292;2023-09-18T08:38:10;8.40;;;4.75;;
71800;SDS011;59647;55.838;37.292;2023-09-18T08:40:39;7.57;;;4.18;;
71800;SDS011;59647;55.838;37.292;2023-09-18T08:43:07;13.30;;;5.32;;
71800;SDS011;59647;55.838;37.292;2023-09-18T08:48:11;7.88;;;4.95;;
71800;SDS011;59647;55.838;37.292;2023-09-18T08:50:38;8.15;;;4.95;;
71800;SDS011;59647;55.838;37.292;2023-09-18T08:53:08;8.18;;;4.68;;
71800;SDS011;59647;55.838;37.292;2023-09-18T08:55:34;9.38;;;5.47;;
71800;SDS011;59647;55.838;37.292;2023-09-18T08:58:00;8.18;;;5.13;;
71800;SDS011;59647;55.838;37.292;2023-09-18T09:00:29;7.18;;;4.05;;
71800;SDS011;59647;55.838;37.292;2023-09-18T09:02:56;14.15;;;5.75;;
71800;SDS011;59647;55.838;37.292;2023-09-18T09:05:23;9.50;;;4.90;;
71800;SDS011;59647;55.838;37.292;2023-09-18T09:07:50;12.40;;;5.15;;
71800;SDS011;59647;55.838;37.292;2023-09-18T09:10:17;11.77;;;4.85;;
71800;SDS011;59647;55.838;37.292;2023-09-18T09:12:54;9.25;;;5.07;;
71800;SDS011;59647;55.838;37.292;2023-09-18T09:15:34;9.45;;;4.30;;
71800;SDS011;59647;55.838;37.292;2023-09-18T09:18:13;11.10;;;5.28;;
71800;SDS011;59647;55.838;37.292;2023-09-18T09:20:54;12.32;;;5.85;;
71800;SDS011;59647;55.838;37.292;2023-09-18T09:23:25;11.82;;;5.20;;
71800;SDS011;59647;55.838;37.292;2023-09-18T09:25:54;7.15;;;4.28;;
71800;SDS011;59647;55.838;37.292;2023-09-18T09:28:37;9.05;;;4.25;;
71800;SDS011;59647;55.838;37.292;2023-09-18T09:31:03;9.38;;;5.13;;
71800;SDS011;59647;55.838;37.292;2023-09-18T09:33:30;8.10;;;4.03;;
71800;SDS011;59647;55.838;37.292;2023-09-18T09:35:56;11.68;;;5.05;;
71800;SDS011;59647;55.838;37.292;2023-09-18T09:38:30;8.93;;;4.68;;
71800;SDS011;59647;55.838;37.292;2023-09-18T09:40:58;9.82;;;5.05;;
71800;SDS011;59647;55.838;37.292;2023-09-18T09:43:31;9.05;;;4.35;;
71800;SDS011;59647;55.838;37.292;2023-09-18T09:45:58;11.77;;;4.90;;
71800;SDS011;59647;55.838;37.292;2023-09-18T09:48:28;9.95;;;5.10;;
71800;SDS011;59647;55.838;37.292;2023-09-18T09:50:57;8.65;;;3.80;;
71800;SDS011;59647;55.838;37.292;2023-09-18T09:53:46;10.35;;;5.60;;
71800;SDS011;59647;55.838;37.292;2023-09-18T09:56:13;9.05;;;4.40;;
71800;SDS011;59647;55.838;37.292;2023-09-18T09:58:50;10.65;;;5.03;;
71800;SDS011;59647;55.838;37.292;2023-09-18T10:01:28;6.55;;;4.13;;
71800;SDS011;59647;55.838;37.292;2023-09-18T10:03:56;8.55;;;4.05;;
71800;SDS011;59647;55.838;37.292;2023-09-18T10:06:24;7.65;;;4.20;;
71800;SDS011;59647;55.838;37.292;2023-09-18T10:08:56;7.70;;;3.75;;
71800;SDS011;59647;55.838;37.292;2023-09-18T10:11:22;8.52;;;4.20;;
71800;SDS011;59647;55.838;37.292;2023-09-18T10:13:55;9.82;;;4.03;;
71800;SDS011;59647;55.838;37.292;2023-09-18T10:16:24;6.38;;;3.60;;
71800;SDS011;59647;55.838;37.292;2023-09-18T10:24:39;8.02;;;4.10;;
71800;SDS011;59647;55.838;37.292;2023-09-18T10:27:10;6.95;;;4.20;;
71800;SDS011;59647;55.838;37.292;2023-09-18T10:29:39;10.57;;;3.90;;
71800;SDS011;59647;55.838;37.292;2023-09-18T10:32:07;7.53;;;3.22;;
71800;SDS011;59647;55.838;37.292;2023-09-18T10:34:33;5.25;;;3.15;;
71800;SDS011;59647;55.838;37.292;2023-09-18T10:37:03;5.50;;;3.30;;
71800;SDS011;59647;55.838;37.292;2023-09-18T10:39:36;6.72;;;2.88;;
71800;SDS011;59647;55.838;37.292;2023-09-18T10:42:05;6.53;;;3.42;;
71800;SDS011;59647;55.838;37.292;2023-09-18T10:44:33;5.80;;;2.95;;
71800;SDS011;59647;55.838;37.292;2023-09-18T10:47:04;7.97;;;3.70;;
71800;SDS011;59647;55.838;37.292;2023-09-18T10:49:32;6.55;;;2.95;;
71800;SDS011;59647;55.838;37.292;2023-09-18T10:52:01;3.05;;;2.10;;
71800;SDS011;59647;55.838;37.292;2023-09-18T10:54:29;4.40;;;2.30;;
71800;SDS011;59647;55.838;37.292;2023-09-18T10:56:56;4.63;;;2.45;;
71800;SDS011;59647;55.838;37.292;2023-09-18T10:59:23;7.75;;;2.47;;
71800;SDS011;59647;55.838;37.292;2023-09-18T11:01:49;5.53;;;2.40;;
71800;SDS011;59647;55.838;37.292;2023-09-18T11:04:19;4.47;;;2.20;;
71800;SDS011;59647;55.838;37.292;2023-09-18T11:09:29;3.65;;;2.33;;
71800;SDS011;59647;55.838;37.292;2023-09-18T11:17:32;3.58;;;2.03;;
71800;SDS011;59647;55.838;37.292;2023-09-18T11:30:52;3.47;;;2.38;;
71800;SDS011;59647;55.838;37.292;2023-09-18T11:36:04;4.85;;;1.83;;
71800;SDS011;59647;55.838;37.292;2023-09-18T11:38:33;5.72;;;2.28;;
71800;SDS011;59647;55.838;37.292;2023-09-18T11:41:18;3.67;;;2.13;;
71800;SDS011;59647;55.838;37.292;2023-09-18T11:46:17;4.07;;;2.20;;
71800;SDS011;59647;55.838;37.292;2023-09-18T11:48:46;4.00;;;2.65;;
71800;SDS011;59647;55.838;37.292;2023-09-18T11:51:20;5.03;;;2.22;;
71800;SDS011;59647;55.838;37.292;2023-09-18T11:53:50;5.32;;;2.83;;
71800;SDS011;59647;55.838;37.292;2023-09-18T11:56:20;4.00;;;2.15;;
71800;SDS011;59647;55.838;37.292;2023-09-18T11:58:50;4.28;;;2.50;;
71800;SDS011;59647;55.838;37.292;2023-09-18T12:01:18;5.25;;;2.60;;
71800;SDS011;59647;55.838;37.292;2023-09-18T12:03:45;4.03;;;2.42;;
71800;SDS011;59647;55.838;37.292;2023-09-18T12:06:12;5.55;;;3.13;;
71800;SDS011;59647;55.838;37.292;2023-09-18T12:08:39;4.03;;;2.83;;
71800;SDS011;59647;55.838;37.292;2023-09-18T12:11:06;6.55;;;3.45;;
71800;SDS011;59647;55.838;37.292;2023-09-18T12:13:32;8.50;;;3.20;;
71800;SDS011;59647;55.838;37.292;2023-09-18T12:16:02;8.18;;;3.72;;
71800;SDS011;59647;55.838;37.292;2023-09-18T12:18:33;6.03;;;3.72;;
71800;SDS011;59647;55.838;37.292;2023-09-18T12:21:02;7.00;;;4.45;;
71800;SDS011;59647;55.838;37.292;2023-09-18T12:23:38;7.82;;;4.20;;
71800;SDS011;59647;55.838;37.292;2023-09-18T12:26:10;8.90;;;4.03;;
71800;SDS011;59647;55.838;37.292;2023-09-18T12:28:40;6.57;;;4.28;;
71800;SDS011;59647;55.838;37.292;2023-09-18T12:31:12;11.32;;;4.70;;
71800;SDS011;59647;55.838;37.292;2023-09-18T12:33:39;8.45;;;4.68;;
71800;SDS011;59647;55.838;37.292;2023-09-18T12:36:06;6.85;;;3.88;;
71800;SDS011;59647;55.838;37.292;2023-09-18T12:38:34;7.00;;;4.25;;
71800;SDS011;59647;55.838;37.292;2023-09-18T12:41:04;9.75;;;4.68;;
71800;SDS011;59647;55.838;37.292;2023-09-18T12:43:39;6.32;;;3.83;;
71800;SDS011;59647;55.838;37.292;2023-09-18T12:46:10;9.40;;;4.22;;
71800;SDS011;59647;55.838;37.292;2023-09-18T12:48:36;6.72;;;4.20;;
71800;SDS011;59647;55.838;37.292;2023-09-18T12:51:05;7.85;;;3.85;;
71800;SDS011;59647;55.838;37.292;2023-09-18T12:53:32;4.93;;;3.40;;
71800;SDS011;59647;55.838;37.292;2023-09-18T12:56:33;7.93;;;4.03;;
71800;SDS011;59647;55.838;37.292;2023-09-18T12:58:57;7.50;;;3.75;;
71800;SDS011;59647;55.838;37.292;2023-09-18T13:01:25;6.50;;;4.35;;
71800;SDS011;59647;55.838;37.292;2023-09-18T13:03:53;6.68;;;3.92;;
71800;SDS011;59647;55.838;37.292;2023-09-18T13:06:23;5.10;;;3.75;;
71800;SDS011;59647;55.838;37.292;2023-09-18T13:08:50;5.93;;;3.80;;
71800;SDS011;59647;55.838;37.292;2023-09-18T13:11:19;6.13;;;3.83;;
71800;SDS011;59647;55.838;37.292;2023-09-18T13:13:57;6.30;;;3.90;;
71800;SDS011;59647;55.838;37.292;2023-09-18T13:16:24;7.25;;;3.25;;
71800;SDS011;59647;55.838;37.292;2023-09-18T13:18:52;7.88;;;4.00;;
71800;SDS011;59647;55.838;37.292;2023-09-18T13:21:18;10.63;;;4.57;;
71800;SDS011;59647;55.838;37.292;2023-09-18T13:23:46;7.60;;;4.05;;
71800;SDS011;59647;55.838;37.292;2023-09-18T13:26:12;9.35;;;4.60;;
71800;SDS011;59647;55.838;37.292;2023-09-18T13:28:39;4.63;;;2.97;;
71800;SDS011;59647;55.838;37.292;2023-09-18T13:31:06;6.30;;;3.53;;
71800;SDS011;59647;55.838;37.292;2023-09-18T13:33:39;7.45;;;3.70;;
71800;SDS011;59647;55.838;37.292;2023-09-18T13:36:06;5.85;;;3.80;;
71800;SDS011;59647;55.838;37.292;2023-09-18T13:38:32;6.50;;;3.35;;
71800;SDS011;59647;55.838;37.292;2023-09-18T13:41:00;4.78;;;3.08;;
71800;SDS011;59647;55.838;37.292;2023-09-18T13:43:26;5.43;;;3.20;;
71800;SDS011;59647;55.838;37.292;2023-09-18T13:45:52;4.97;;;3.45;;
71800;SDS011;59647;55.838;37.292;2023-09-18T13:48:22;6.00;;;3.63;;
71800;SDS011;59647;55.838;37.292;2023-09-18T13:50:48;10.15;;;4.00;;
71800;SDS011;59647;55.838;37.292;2023-09-18T13:53:18;6.63;;;3.00;;
71800;SDS011;59647;55.838;37.292;2023-09-18T13:55:44;7.93;;;3.55;;
71800;SDS011;59647;55.838;37.292;2023-09-18T13:58:10;8.00;;;3.60;;
71800;SDS011;59647;55.838;37.292;2023-09-18T14:00:37;7.72;;;3.42;;
71800;SDS011;59647;55.838;37.292;2023-09-18T14:03:05;5.82;;;3.53;;
71800;SDS011;59647;55.838;37.292;2023-09-18T14:05:31;5.68;;;3.55;;
71800;SDS011;59647;55.838;37.292;2023-09-18T14:08:02;4.30;;;2.67;;
71800;SDS011;59647;55.838;37.292;2023-09-18T14:10:29;8.07;;;3.53;;
71800;SDS011;59647;55.838;37.292;2023-09-18T14:12:55;6.63;;;3.35;;
71800;SDS011;59647;55.838;37.292;2023-09-18T14:15:25;5.43;;;3.08;;
71800;SDS011;59647;55.838;37.292;2023-09-18T14:17:51;5.55;;;3.47;;
71800;SDS011;59647;55.838;37.292;2023-09-18T14:20:21;4.15;;;2.63;;
71800;SDS011;59647;55.838;37.292;2023-09-18T14:22:48;7.22;;;3.80;;
71800;SDS011;59647;55.838;37.292;2023-09-18T14:25:16;6.60;;;3.42;;
71800;SDS011;59647;55.838;37.292;2023-09-18T14:27:46;8.05;;;3.80;;
71800;SDS011;59647;55.838;37.292;2023-09-18T14:30:12;5.30;;;3.03;;
71800;SDS011;59647;55.838;37.292;2023-09-18T14:32:39;8.20;;;3.85;;
71800;SDS011;59647;55.838;37.292;2023-09-18T14:35:05;5.82;;;3.47;;
71800;SDS011;59647;55.838;37.292;2023-09-18T14:37:34;5.68;;;3.42;;
71800;SDS011;59647;55.838;37.292;2023-09-18T14:40:00;10.98;;;3.60;;
71800;SDS011;59647;55.838;37.292;2023-09-18T14:42:26;7.10;;;3.67;;
71800;SDS011;59647;55.838;37.292;2023-09-18T14:44:52;8.10;;;4.60;;
71800;SDS011;59647;55.838;37.292;2023-09-18T14:47:18;6.65;;;3.47;;
71800;SDS011;59647;55.838;37.292;2023-09-18T14:49:44;6.32;;;3.40;;
71800;SDS011;59647;55.838;37.292;2023-09-18T14:52:13;8.75;;;3.97;;
71800;SDS011;59647;55.838;37.292;2023-09-18T14:54:43;4.45;;;3.25;;
71800;SDS011;59647;55.838;37.292;2023-09-18T14:57:09;8.07;;;3.70;;
71800;SDS011;59647;55.838;37.292;2023-09-18T14:59:36;5.53;;;3.15;;
71800;SDS011;59647;55.838;37.292;2023-09-18T15:02:04;9.43;;;3.55;;
71800;SDS011;59647;55.838;37.292;2023-09-18T15:04:32;7.38;;;3.67;;
71800;SDS011;59647;55.838;37.292;2023-09-18T15:06:59;7.65;;;3.92;;
71800;SDS011;59647;55.838;37.292;2023-09-18T15:09:25;9.77;;;4.13;;